Time;durP1;ratioP1;P1;durP2;ratioP2;P2;SDS_P1;SDS_P2;PMS_P1;PMS_P2;Temp;Humidity;BMP_temperature;BMP_pressure;BME280_temperature;BME280_humidity;BME280_pressure;Samples;Min_cycle;Max_cycle;Signal;HPM_P1;HPM_P2
2021/07/11 00:01:39;;;;;;;5.47;3.20;;;16.20;99.90;;;17.15;100.00;98078.63;5020948;28;20948;-80
2021/07/11 00:04:08;;;;;;;4.90;2.70;;;16.10;99.90;;;17.08;100.00;98078.72;5019403;28;20499;-80
2021/07/11 00:06:38;;;;;;;5.63;2.97;;;16.10;99.90;;;17.01;100.00;98082.50;5022594;28;20465;-80
2021/07/11 00:09:09;;;;;;;5.00;2.90;;;16.00;99.90;;;17.11;100.00;98088.84;5022383;28;20470;-80
2021/07/11 00:11:39;;;;;;;4.20;3.30;;;16.00;99.90;;;17.19;100.00;98079.78;5016623;28;20479;-80
2021/07/11 00:14:09;;;;;;;4.20;2.70;;;16.10;99.90;;;17.30;100.00;98080.84;5019304;28;20558;-81
2021/07/11 00:16:38;;;;;;;11.30;3.13;;;16.30;99.90;;;17.33;100.00;98081.19;5024174;28;20561;-80
2021/07/11 00:19:08;;;;;;;8.43;2.90;;;16.30;99.90;;;17.28;100.00;98081.06;5019352;28;20816;-80
2021/07/11 00:21:37;;;;;;;3.00;2.70;;;16.20;99.90;;;17.24;100.00;98082.56;5022363;28;20560;-80
2021/07/11 00:24:10;;;;;;;7.10;3.00;;;16.20;99.90;;;17.16;100.00;98072.31;5023808;28;20501;-80
2021/07/11 00:26:40;;;;;;;4.00;2.70;;;16.20;99.90;;;17.11;100.00;98080.13;5022717;28;20496;-80
2021/07/11 00:29:09;;;;;;;5.97;2.70;;;16.10;99.90;;;17.14;100.00;98078.88;5024307;28;20462;-80
2021/07/11 00:31:38;;;;;;;8.30;3.50;;;16.10;99.90;;;17.14;100.00;98076.22;5022320;28;20523;-80
2021/07/11 00:34:07;;;;;;;5.40;2.87;;;16.10;99.90;;;17.24;100.00;98077.28;5019529;28;20490;-80
2021/07/11 00:36:37;;;;;;;4.57;3.00;;;16.30;99.90;;;17.20;100.00;98080.59;5022268;28;20478;-80
2021/07/11 00:39:06;;;;;;;4.03;2.90;;;16.20;99.90;;;17.13;100.00;98086.00;5021974;28;20540;-80
2021/07/11 00:41:40;;;;;;;17.43;3.20;;;16.20;99.90;;;17.06;100.00;98087.94;5021404;28;20493;-80
2021/07/11 00:44:10;;;;;;;3.43;2.93;;;16.10;99.90;;;17.17;100.00;98087.16;5021538;28;20503;-80
2021/07/11 00:46:39;;;;;;;10.67;3.17;;;16.20;99.90;;;16.84;100.00;98086.84;5020398;28;20481;-80
2021/07/11 00:49:09;;;;;;;13.80;3.00;;;15.80;99.90;;;16.92;100.00;98084.69;5021651;28;20569;-80
2021/07/11 00:51:38;;;;;;;9.33;3.23;;;15.90;99.90;;;17.03;100.00;98101.59;5020299;28;20469;-80
2021/07/11 00:54:09;;;;;;;5.20;3.10;;;16.00;99.90;;;16.83;100.00;98098.44;5018530;28;20463;-80
2021/07/11 00:56:44;;;;;;;3.80;2.70;;;15.80;99.90;;;16.92;100.00;98105.81;5015413;28;20983;-80
2021/07/11 00:59:13;;;;;;;16.97;3.37;;;15.90;99.90;;;16.95;100.00;98105.38;5023371;28;20464;-80
2021/07/11 01:01:49;;;;;;;12.00;2.83;;;16.00;99.90;;;16.96;100.00;98099.06;5027559;28;20461;-80
2021/07/11 01:04:28;;;;;;;5.57;3.27;;;16.00;99.90;;;17.10;100.00;98099.66;5026855;28;21038;-80
2021/07/11 01:07:06;;;;;;;4.97;3.00;;;16.10;99.90;;;17.19;100.00;98090.34;5027063;28;20913;-80
2021/07/11 01:09:42;;;;;;;9.63;3.47;;;16.20;99.90;;;17.19;100.00;98085.06;5025453;28;20505;-80
2021/07/11 01:12:22;;;;;;;4.07;3.27;;;16.20;99.90;;;17.21;100.00;98083.03;5024413;28;20461;-80
2021/07/11 01:14:54;;;;;;;4.63;3.17;;;16.20;99.90;;;17.28;100.00;98075.78;5026214;28;20461;-80
2021/07/11 01:17:28;;;;;;;7.23;3.73;;;16.30;99.90;;;17.25;100.00;98081.50;5021219;28;20470;-80
2021/07/11 01:20:18;;;;;;;6.30;3.10;;;16.20;99.90;;;17.31;100.00;98088.56;5025228;28;20469;-80
2021/07/11 01:22:54;;;;;;;4.83;3.10;;;16.30;99.90;;;17.29;100.00;98095.06;5027249;28;20476;-80
2021/07/11 01:25:36;;;;;;;10.70;4.37;;;16.30;99.90;;;17.31;100.00;98101.75;5025158;28;20562;-80
2021/07/11 01:28:09;;;;;;;4.80;2.90;;;16.30;99.90;;;17.28;100.00;98102.22;5027380;28;21045;-80
2021/07/11 01:30:39;;;;;;;4.40;3.30;;;16.30;99.90;;;17.17;100.00;98092.44;5022953;28;20505;-80
2021/07/11 01:33:10;;;;;;;4.60;3.40;;;16.20;99.90;;;17.15;100.00;98109.56;5022529;28;20894;-80
2021/07/11 01:35:42;;;;;;;7.63;3.10;;;16.10;99.90;;;17.14;100.00;98113.22;5029257;28;20481;-80
2021/07/11 01:38:11;;;;;;;7.10;3.13;;;16.10;99.90;;;17.03;100.00;98114.81;5021106;28;20458;-80
2021/07/11 01:40:45;;;;;;;5.80;3.37;;;16.00;99.90;;;16.96;100.00;98108.81;5018267;28;21395;-80
2021/07/11 01:43:18;;;;;;;5.93;3.20;;;16.00;99.90;;;16.91;100.00;98104.19;5026010;28;20489;-80
2021/07/11 01:45:50;;;;;;;7.03;2.63;;;15.80;99.90;;;16.91;100.00;98111.31;5023301;28;20914;-80
2021/07/11 01:48:20;;;;;;;5.60;3.50;;;15.80;99.90;;;16.92;100.00;98105.00;5027776;28;20451;-80
2021/07/11 01:50:51;;;;;;;10.00;3.10;;;15.80;99.90;;;16.80;100.00;98102.31;5025066;28;20470;-80
2021/07/11 01:53:26;;;;;;;7.50;3.10;;;15.70;99.90;;;16.63;100.00;98104.00;5024237;28;20462;-80
2021/07/11 01:55:58;;;;;;;5.33;2.83;;;15.60;99.90;;;16.67;100.00;98105.16;5026821;28;20839;-80
2021/07/11 01:58:27;;;;;;;5.10;3.50;;;15.60;99.90;;;16.80;100.00;98101.53;5024570;28;20500;-80
2021/07/11 02:00:59;;;;;;;11.70;3.20;;;15.70;99.90;;;16.75;100.00;98104.03;5018099;28;20493;-80
2021/07/11 02:03:28;;;;;;;10.53;3.50;;;15.70;99.90;;;16.70;100.00;98107.34;5023079;28;20523;-80
2021/07/11 02:05:58;;;;;;;8.77;4.10;;;15.60;99.90;;;16.77;100.00;98102.78;5027745;28;20505;-80
2021/07/11 02:08:27;;;;;;;9.07;2.73;;;15.70;99.90;;;16.82;100.00;98100.28;5023778;28;20853;-80
2021/07/11 02:11:01;;;;;;;6.23;3.10;;;15.80;99.90;;;16.89;100.00;98100.19;5022904;28;20462;-80
2021/07/11 02:13:45;;;;;;;8.63;3.10;;;15.90;99.90;;;16.88;100.00;98109.13;5024117;28;20975;-80
2021/07/11 02:16:21;;;;;;;11.13;3.40;;;15.90;99.90;;;16.90;100.00;98107.09;5024722;28;20470;-80
2021/07/11 02:18:55;;;;;;;5.40;3.30;;;15.90;99.90;;;16.90;100.00;98112.38;5025689;28;20462;-80
2021/07/11 02:21:27;;;;;;;5.27;2.90;;;15.90;99.90;;;16.84;100.00;98118.53;5027880;28;20465;-80
2021/07/11 02:24:03;;;;;;;10.07;2.90;;;15.80;99.90;;;16.80;100.00;98117.41;5023312;28;20462;-80
2021/07/11 02:26:38;;;;;;;8.23;3.37;;;15.70;99.90;;;16.78;100.00;98119.44;5023566;28;20497;-80
2021/07/11 02:29:09;;;;;;;8.90;3.40;;;15.70;99.90;;;16.61;100.00;98121.91;5022656;28;20462;-80
2021/07/11 02:31:41;;;;;;;7.40;3.47;;;15.60;99.90;;;16.69;100.00;98126.06;5021836;28;20465;-80
2021/07/11 02:34:13;;;;;;;4.73;3.23;;;15.70;99.90;;;16.70;100.00;98125.84;5022479;28;20555;-80
2021/07/11 02:36:52;;;;;;;5.47;3.33;;;15.70;99.90;;;16.69;100.00;98126.06;5018311;28;20772;-80
2021/07/11 02:39:23;;;;;;;8.37;2.50;;;15.70;99.90;;;16.64;100.00;98128.56;5023181;28;20462;-80
2021/07/11 02:41:59;;;;;;;8.40;3.30;;;15.70;99.90;;;16.68;100.00;98130.53;5020852;28;20494;-80
2021/07/11 02:44:30;;;;;;;5.43;2.87;;;15.70;99.90;;;16.71;100.00;98137.22;5021512;28;20493;-80
2021/07/11 02:47:05;;;;;;;5.83;3.10;;;15.70;99.90;;;16.72;100.00;98131.72;5021123;28;20527;-81
2021/07/11 02:49:37;;;;;;;3.43;2.33;;;15.80;99.90;;;16.70;100.00;98135.59;5020792;28;20917;-80
2021/07/11 02:52:08;;;;;;;3.63;2.67;;;15.80;99.90;;;16.68;100.00;98129.72;5020654;28;20470;-80
2021/07/11 02:54:45;;;;;;;5.33;2.87;;;15.80;99.90;;;16.72;100.00;98130.91;5024216;28;20568;-80
2021/07/11 02:57:22;;;;;;;3.73;2.50;;;15.80;99.90;;;16.79;100.00;98126.34;5028435;28;20462;-80
2021/07/11 02:59:54;;;;;;;3.50;2.83;;;15.90;99.90;;;16.80;100.00;98127.97;5025185;28;20466;-80
2021/07/11 03:02:26;;;;;;;5.63;3.10;;;15.90;99.90;;;16.75;100.00;98133.91;5025871;28;20462;-80
2021/07/11 03:04:58;;;;;;;4.30;2.47;;;15.80;99.90;;;16.77;100.00;98126.56;5023354;28;20482;-80
2021/07/11 03:07:28;;;;;;;18.13;2.43;;;15.90;99.90;;;16.79;100.00;98121.06;5019071;28;20466;-80
2021/07/11 03:09:57;;;;;;;5.20;3.10;;;15.90;99.90;;;16.71;100.00;98129.28;5019414;28;21108;-80
2021/07/11 03:12:29;;;;;;;3.63;2.17;;;15.70;99.90;;;16.69;100.00;98134.00;5021908;28;20465;-80
2021/07/11 03:15:00;;;;;;;8.23;2.80;;;15.70;99.90;;;16.62;100.00;98134.09;5023285;28;20459;-80
2021/07/11 03:17:31;;;;;;;5.93;2.50;;;15.60;99.90;;;16.45;100.00;98133.84;5017129;28;20475;-81
2021/07/11 03:20:05;;;;;;;5.10;3.00;;;15.40;99.90;;;16.39;100.00;98129.44;5023469;28;20541;-80
2021/07/11 03:22:40;;;;;;;6.40;4.17;;;15.40;99.90;;;16.50;100.00;98136.63;5026991;28;20473;-81
2021/07/11 03:25:14;;;;;;;6.33;3.80;;;15.50;99.90;;;16.51;100.00;98129.53;5022905;28;20937;-80
2021/07/11 03:27:46;;;;;;;7.40;2.87;;;15.50;99.90;;;16.54;100.00;98124.59;5018533;28;20811;-80
2021/07/11 03:30:20;;;;;;;13.70;2.70;;;15.50;99.90;;;16.49;100.00;98124.44;5023272;28;20446;-80
2021/07/11 03:32:54;;;;;;;3.73;2.93;;;15.50;99.90;;;16.32;100.00;98133.19;5025131;28;20453;-80
2021/07/11 03:35:30;;;;;;;23.93;2.90;;;15.30;99.90;;;16.27;100.00;98139.16;5028704;28;20877;-79
2021/07/11 03:38:01;;;;;;;3.33;2.77;;;15.30;99.90;;;16.13;100.00;98148.25;5027830;28;20484;-80
2021/07/11 03:40:37;;;;;;;4.77;3.23;;;15.10;99.90;;;16.27;100.00;98148.91;5028728;28;20450;-80
2021/07/11 03:43:12;;;;;;;4.40;2.27;;;15.20;99.90;;;16.37;100.00;98147.34;5020674;28;20481;-80
2021/07/11 03:45:47;;;;;;;3.57;2.77;;;15.40;99.90;;;16.42;100.00;98151.94;5023283;28;20529;-80
2021/07/11 03:48:27;;;;;;;3.30;2.80;;;15.50;99.90;;;16.40;100.00;98139.00;5028200;28;20938;-80
2021/07/11 03:51:02;;;;;;;15.90;2.97;;;15.50;99.90;;;16.23;100.00;98145.91;5028542;28;20951;-80
2021/07/11 03:53:36;;;;;;;8.13;3.20;;;15.30;99.90;;;16.31;100.00;98142.97;5026480;28;20468;-80
2021/07/11 03:56:08;;;;;;;4.17;2.97;;;15.30;99.90;;;16.39;100.00;98155.03;5027699;28;20935;-78
2021/07/11 03:58:41;;;;;;;6.80;2.93;;;15.40;99.90;;;16.41;100.00;98153.81;5023471;28;20463;-81
2021/07/11 04:01:15;;;;;;;3.10;2.60;;;15.50;99.90;;;16.45;100.00;98157.59;5024417;28;20991;-80
2021/07/11 04:03:48;;;;;;;7.03;2.80;;;15.50;99.90;;;16.46;100.00;98161.03;5028595;28;20456;-79
2021/07/11 04:06:22;;;;;;;4.23;2.60;;;15.50;99.90;;;16.55;100.00;98160.56;5026975;28;20497;-79
2021/07/11 04:09:01;;;;;;;4.60;2.73;;;15.60;99.90;;;16.56;100.00;98164.00;5028185;28;20477;-79
2021/07/11 04:11:34;;;;;;;4.87;3.30;;;15.60;99.90;;;16.50;100.00;98163.03;5023139;28;20462;-79
2021/07/11 04:14:06;;;;;;;4.93;2.90;;;15.60;99.90;;;16.39;100.00;98174.31;5023134;28;21104;-79
2021/07/11 04:16:39;;;;;;;5.20;2.93;;;15.40;99.90;;;16.32;100.00;98178.88;5017961;28;20497;-80
2021/07/11 04:19:10;;;;;;;10.30;3.10;;;15.40;99.90;;;16.21;100.00;98176.19;5024572;28;21263;-85
2021/07/11 04:21:42;;;;;;;32.83;10.37;;;15.30;99.90;;;16.30;100.00;98188.84;5023450;28;20465;-80
2021/07/11 04:24:13;;;;;;;7.37;3.83;;;15.30;99.90;;;16.37;100.00;98183.50;5021397;28;20462;-80
2021/07/11 04:26:45;;;;;;;3.63;3.00;;;15.40;99.90;;;16.43;100.00;98174.69;5028040;28;20561;-80
2021/07/11 04:29:16;;;;;;;15.87;3.10;;;15.50;99.90;;;16.18;100.00;98173.94;5030414;28;20474;-79
2021/07/11 04:31:46;;;;;;;5.53;2.80;;;15.20;99.90;;;16.14;100.00;98178.06;5027845;28;20466;-79
2021/07/11 04:34:27;;;;;;;4.23;3.23;;;15.20;99.90;;;16.22;100.00;98183.84;5034169;28;20512;-80
2021/07/11 04:36:59;;;;;;;4.83;2.93;;;15.30;99.90;;;16.29;100.00;98179.31;5030823;28;20452;-79
2021/07/11 04:39:30;;;;;;;5.53;2.90;;;15.40;99.90;;;16.30;100.00;98170.38;5028968;28;20446;-80
2021/07/11 04:42:00;;;;;;;4.40;3.23;;;15.40;99.90;;;16.38;100.00;98183.25;5030532;28;20553;-79
2021/07/11 04:44:32;;;;;;;7.27;3.20;;;15.50;99.90;;;16.37;100.00;98186.94;5031123;28;20450;-81
2021/07/11 04:47:01;;;;;;;5.37;2.70;;;15.50;99.90;;;16.37;100.00;98189.59;5023877;28;20494;-80
2021/07/11 04:49:30;;;;;;;5.60;2.93;;;15.50;99.90;;;16.39;100.00;98190.16;5026068;28;20459;-79
2021/07/11 04:52:04;;;;;;;6.63;4.50;;;15.50;99.90;;;16.35;100.00;98183.72;5028053;28;20553;-80
2021/07/11 04:54:35;;;;;;;8.23;3.60;;;15.40;99.90;;;16.29;100.00;98194.34;5030149;28;20816;-79
2021/07/11 04:57:14;;;;;;;9.33;3.20;;;15.40;99.90;;;16.32;100.00;98188.63;5031459;28;20529;-80
2021/07/11 04:59:46;;;;;;;6.67;3.40;;;15.40;99.90;;;16.38;100.00;98191.19;5030329;28;20515;-80
2021/07/11 05:02:15;;;;;;;24.97;3.20;;;15.50;99.90;;;16.36;100.00;98201.16;5029294;28;20527;-79
2021/07/11 05:04:46;;;;;;;6.30;2.83;;;15.50;99.90;;;16.37;100.00;98196.69;5029792;28;20461;-79
2021/07/11 05:07:17;;;;;;;3.13;2.60;;;15.50;99.90;;;16.44;100.00;98197.44;5031296;28;20489;-80
2021/07/11 05:09:48;;;;;;;3.87;3.20;;;15.60;99.90;;;16.48;100.00;98202.06;5028648;28;20452;-80
2021/07/11 05:12:17;;;;;;;4.53;2.80;;;15.60;99.90;;;16.54;100.00;98203.81;5021776;28;20458;-79
2021/07/11 05:14:48;;;;;;;3.17;2.60;;;15.60;99.90;;;16.57;100.00;98199.94;5029371;28;20481;-80
2021/07/11 05:17:18;;;;;;;3.83;3.40;;;15.70;99.90;;;16.60;100.00;98199.50;5027831;28;21061;-84
2021/07/11 05:19:50;;;;;;;7.87;2.43;;;15.70;99.90;;;16.61;100.00;98190.56;5026922;28;20449;-80
2021/07/11 05:22:22;;;;;;;8.23;2.63;;;15.70;99.90;;;16.57;100.00;98190.19;5027808;28;20478;-79
2021/07/11 05:24:53;;;;;;;8.27;3.87;;;15.60;99.90;;;16.50;100.00;98202.63;5024036;28;20465;-80
2021/07/11 05:27:24;;;;;;;3.20;2.77;;;15.50;99.90;;;16.50;100.00;98192.06;5027034;28;20887;-80
2021/07/11 05:29:55;;;;;;;7.27;2.37;;;15.50;99.90;;;16.37;100.00;98199.34;5027419;28;20559;-80
2021/07/11 05:32:25;;;;;;;2.93;2.40;;;15.40;99.90;;;16.22;100.00;98199.69;5025125;28;22706;-80
2021/07/11 05:34:54;;;;;;;8.03;3.10;;;15.30;99.90;;;16.28;100.00;98201.44;5025555;28;20973;-80
2021/07/11 05:37:27;;;;;;;8.63;2.90;;;15.30;99.90;;;16.37;100.00;98201.97;5019989;28;20474;-80
2021/07/11 05:39:58;;;;;;;3.93;2.73;;;15.40;99.90;;;16.32;100.00;98204.44;5020788;28;20469;-80
2021/07/11 05:42:27;;;;;;;8.70;2.70;;;15.30;99.90;;;16.38;100.00;98204.38;5020128;28;20510;-80
2021/07/11 05:44:59;;;;;;;3.87;2.67;;;15.40;99.90;;;16.43;100.00;98204.53;5022573;28;20863;-80
2021/07/11 05:47:29;;;;;;;6.37;3.47;;;15.50;99.90;;;16.51;100.00;98200.81;5022938;28;20584;-80
2021/07/11 05:49:58;;;;;;;5.80;2.87;;;15.60;99.90;;;16.58;100.00;98209.47;5026460;28;20470;-77
2021/07/11 05:52:28;;;;;;;5.10;3.13;;;15.60;99.90;;;16.65;100.00;98206.75;5019660;28;20478;-81
2021/07/11 05:54:58;;;;;;;3.60;2.73;;;15.70;99.90;;;16.70;100.00;98202.41;5027767;28;20470;-80
2021/07/11 05:57:30;;;;;;;4.33;3.40;;;15.80;99.90;;;16.79;100.00;98201.09;5025087;28;20549;-80
2021/07/11 06:00:01;;;;;;;16.17;7.87;;;15.80;99.90;;;16.83;100.00;98204.09;5024646;28;20642;-80
2021/07/11 06:02:39;;;;;;;8.50;3.13;;;16.00;99.90;;;16.85;100.00;98199.41;5021720;28;20889;-80
2021/07/11 06:05:10;;;;;;;4.40;2.73;;;15.90;99.90;;;16.87;100.00;98197.34;5027184;28;20467;-80
2021/07/11 06:07:40;;;;;;;4.40;3.23;;;16.00;99.90;;;16.88;100.00;98209.50;5029486;28;20856;-80
2021/07/11 06:10:13;;;;;;;2.83;2.50;;;16.00;99.90;;;16.94;100.00;98198.84;5027963;28;20482;-80
2021/07/11 06:12:42;;;;;;;3.63;2.27;;;16.10;99.90;;;16.93;100.00;98197.25;5028459;28;20466;-81
2021/07/11 06:15:15;;;;;;;5.87;2.73;;;16.10;99.90;;;16.95;100.00;98197.03;5026350;28;20462;-80
2021/07/11 06:17:44;;;;;;;3.40;2.40;;;16.10;99.90;;;17.03;100.00;98196.72;5021102;28;20527;-79
2021/07/11 06:20:14;;;;;;;2.90;2.37;;;16.10;99.90;;;17.08;100.00;98194.19;5021872;28;20565;-80
2021/07/11 06:22:44;;;;;;;4.33;2.60;;;16.20;99.90;;;17.11;100.00;98191.91;5022555;28;20485;-80
2021/07/11 06:25:13;;;;;;;7.20;3.27;;;16.20;99.90;;;17.18;100.00;98198.97;5023579;28;20476;-79
2021/07/11 06:27:44;;;;;;;4.03;3.13;;;16.30;99.90;;;17.22;100.00;98200.09;5021942;28;20508;-80
2021/07/11 06:30:18;;;;;;;3.87;2.87;;;16.30;99.90;;;17.25;100.00;98194.38;5021107;28;20557;-80
2021/07/11 06:32:49;;;;;;;3.93;3.30;;;16.40;99.90;;;17.25;100.00;98205.75;5021874;28;21480;-80
2021/07/11 06:35:22;;;;;;;4.40;3.30;;;16.40;99.90;;;17.25;100.00;98208.38;5021198;28;20573;-81
2021/07/11 06:37:53;;;;;;;10.30;3.03;;;16.50;99.90;;;17.24;100.00;98204.16;5025058;28;20473;-79
2021/07/11 06:40:25;;;;;;;3.53;3.13;;;16.40;99.90;;;17.24;100.00;98209.44;5025839;28;20469;-79
2021/07/11 06:42:55;;;;;;;4.20;3.60;;;16.40;99.90;;;17.28;100.00;98220.38;5021873;28;20490;-80
2021/07/11 06:45:28;;;;;;;13.23;3.37;;;16.40;99.90;;;17.14;100.00;98209.19;5021832;28;20850;-80
2021/07/11 06:47:58;;;;;;;4.80;3.63;;;16.30;99.90;;;17.13;100.00;98220.78;5022928;28;21975;-80
2021/07/11 06:50:29;;;;;;;18.00;10.27;;;16.40;99.90;;;17.23;100.00;98222.88;5027885;28;20446;-79
2021/07/11 06:52:59;;;;;;;5.97;4.40;;;16.50;99.90;;;17.30;100.00;98219.09;5028036;28;20995;-79
2021/07/11 06:55:30;;;;;;;7.80;3.60;;;16.60;99.90;;;17.34;100.00;98212.34;5022421;28;20497;-80
2021/07/11 06:57:59;;;;;;;4.63;3.80;;;16.60;99.90;;;17.30;100.00;98219.09;5025913;28;20458;-79
2021/07/11 07:00:30;;;;;;;4.03;3.40;;;16.50;99.90;;;17.29;100.00;98221.97;5027526;28;20851;-79
2021/07/11 07:03:01;;;;;;;3.80;3.20;;;16.50;99.90;;;17.07;100.00;98219.03;5024959;28;20843;-79
2021/07/11 07:05:30;;;;;;;3.73;3.30;;;16.30;99.90;;;17.19;100.00;98217.22;5028430;28;20466;-79
2021/07/11 07:08:00;;;;;;;3.63;3.00;;;16.30;99.90;;;17.26;100.00;98223.22;5025015;28;20555;-79
2021/07/11 07:10:32;;;;;;;9.23;3.23;;;16.50;99.90;;;17.37;100.00;98219.00;5024125;28;20545;-79
2021/07/11 07:13:01;;;;;;;5.83;3.40;;;16.50;99.90;;;17.22;100.00;98224.69;5026022;28;20972;-79
2021/07/11 07:15:32;;;;;;;5.57;3.60;;;16.30;99.90;;;17.31;100.00;98230.47;5024734;28;20509;-79
2021/07/11 07:18:11;;;;;;;5.30;3.37;;;16.50;99.90;;;17.38;100.00;98226.72;5027995;28;20470;-79
2021/07/11 07:20:42;;;;;;;6.40;3.63;;;16.60;99.90;;;17.29;100.00;98228.06;5022651;28;20533;-80
2021/07/11 07:23:11;;;;;;;4.87;4.17;;;16.50;99.90;;;17.19;100.00;98229.63;5028573;28;20837;-79
2021/07/11 07:25:41;;;;;;;5.13;3.10;;;16.30;99.90;;;17.31;100.00;98233.94;5028584;28;20925;-80
2021/07/11 07:28:11;;;;;;;4.07;2.90;;;16.50;99.90;;;17.26;100.00;98239.09;5026717;28;20498;-80
2021/07/11 07:30:42;;;;;;;4.70;3.70;;;16.50;99.90;;;17.38;100.00;98236.50;5025038;28;20470;-80
2021/07/11 07:33:11;;;;;;;8.27;3.07;;;16.60;99.90;;;17.47;100.00;98238.56;5027125;28;20949;-80
2021/07/11 07:35:41;;;;;;;3.97;2.73;;;16.70;99.90;;;17.41;100.00;98242.13;5023004;28;20446;-79
2021/07/11 07:38:10;;;;;;;3.00;2.67;;;16.60;99.90;;;17.37;100.00;98242.78;5022598;28;20949;-80
2021/07/11 07:40:39;;;;;;;5.20;3.57;;;16.50;99.90;;;17.53;100.00;98244.78;5023327;28;20465;-80
2021/07/11 07:43:09;;;;;;;6.47;3.17;;;16.70;99.90;;;17.54;100.00;98244.56;5023755;28;20551;-80
2021/07/11 07:45:42;;;;;;;4.93;2.83;;;16.70;99.90;;;17.65;100.00;98242.22;5028547;28;20462;-80
2021/07/11 07:48:14;;;;;;;4.90;2.53;;;16.90;99.90;;;17.74;100.00;98240.84;5023313;28;20492;-80
2021/07/11 07:50:44;;;;;;;14.37;12.93;;;17.00;99.90;;;17.78;100.00;98244.63;5023404;28;20466;-81
2021/07/11 07:53:13;;;;;;;2.50;2.20;;;16.90;99.90;;;17.82;100.00;98248.44;5025194;28;20468;-79
2021/07/11 07:55:44;;;;;;;3.60;2.13;;;17.00;99.90;;;17.84;100.00;98247.19;5021261;28;20475;-80
2021/07/11 07:58:13;;;;;;;3.67;2.23;;;17.00;99.90;;;17.81;100.00;98239.69;5026664;28;20820;-80
2021/07/11 08:00:44;;;;;;;3.47;2.30;;;17.00;99.90;;;17.91;100.00;98241.81;5022586;28;20462;-79
2021/07/11 08:03:16;;;;;;;5.73;2.43;;;17.10;99.90;;;17.82;100.00;98240.50;5022011;28;20575;-80
2021/07/11 08:05:45;;;;;;;5.70;2.20;;;16.90;99.90;;;17.92;100.00;98243.41;5016010;28;20511;-80
2021/07/11 08:08:14;;;;;;;5.27;2.00;;;17.00;99.90;;;18.03;100.00;98238.13;5024517;28;20516;-80
2021/07/11 08:10:43;;;;;;;1.90;1.70;;;17.20;99.90;;;18.15;100.00;98237.31;5017805;28;20475;-81
2021/07/11 08:13:13;;;;;;;4.30;3.90;;;17.30;99.90;;;18.25;100.00;98240.19;5023375;28;20470;-80
2021/07/11 08:15:44;;;;;;;3.20;2.00;;;17.50;99.90;;;18.12;100.00;98243.09;5022948;28;20488;-79
2021/07/11 08:18:13;;;;;;;3.90;1.80;;;17.40;99.90;;;18.15;100.00;98235.50;5024788;28;21024;-80
2021/07/11 08:20:43;;;;;;;4.27;2.20;;;17.40;99.90;;;18.19;100.00;98236.63;5025171;28;20469;-80
2021/07/11 08:23:11;;;;;;;4.90;1.90;;;17.50;99.90;;;18.07;100.00;98247.22;5025566;28;20466;-80
2021/07/11 08:25:41;;;;;;;4.07;1.90;;;17.30;99.90;;;18.03;100.00;98255.84;5025165;28;20454;-80
2021/07/11 08:28:10;;;;;;;2.87;1.70;;;17.30;99.90;;;18.15;100.00;98251.38;5017069;28;20831;-80
2021/07/11 08:30:40;;;;;;;4.43;2.00;;;17.40;99.90;;;18.18;100.00;98250.09;5020314;28;20969;-81
2021/07/11 08:33:11;;;;;;;3.07;1.80;;;17.40;99.90;;;18.32;100.00;98249.63;5024496;28;20515;-81
2021/07/11 08:35:41;;;;;;;3.50;2.17;;;17.50;99.90;;;18.44;100.00;98250.41;5024887;28;20488;-81
2021/07/11 08:38:11;;;;;;;2.80;1.90;;;17.70;99.90;;;18.47;100.00;98251.78;5018448;28;20980;-81
2021/07/11 08:40:40;;;;;;;3.10;2.00;;;17.70;99.90;;;18.53;100.00;98248.25;5021035;28;20450;-81
2021/07/11 08:43:10;;;;;;;3.53;2.00;;;17.80;99.90;;;18.60;100.00;98254.25;5023925;28;21010;-81
2021/07/11 08:45:40;;;;;;;3.37;2.87;;;17.80;99.90;;;18.71;100.00;98255.25;5026370;28;20478;-81
2021/07/11 08:48:12;;;;;;;7.93;2.00;;;17.90;99.90;;;18.74;100.00;98236.25;5024374;28;20547;-81
2021/07/11 08:50:40;;;;;;;4.10;1.90;;;18.00;99.90;;;18.80;100.00;98245.91;5026104;28;20528;-81
2021/07/11 08:53:14;;;;;;;2.60;1.77;;;18.10;99.90;;;18.85;100.00;98249.44;5021568;28;20462;-80
2021/07/11 08:55:45;;;;;;;2.60;1.67;;;18.20;99.90;;;18.90;100.00;98238.16;5023132;28;20473;-80
2021/07/11 09:01:00;;;;;;;2.93;1.80;;;18.20;99.90;;;19.01;100.00;98247.91;5477905;23;21463;-85
2021/07/11 09:03:32;;;;;;;2.77;2.13;;;18.30;99.90;;;19.04;100.00;98244.78;4982579;28;20547;-80
2021/07/11 09:06:03;;;;;;;1.80;1.63;;;18.30;99.90;;;19.03;100.00;98229.91;4982158;28;20479;-81
2021/07/11 09:08:34;;;;;;;2.60;2.13;;;18.30;99.90;;;19.08;100.00;98244.09;4987599;28;20953;-80
2021/07/11 09:11:03;;;;;;;2.50;1.83;;;18.30;99.90;;;19.14;100.00;98247.63;4989983;28;20448;-81
2021/07/11 09:13:32;;;;;;;2.80;1.70;;;18.30;99.90;;;19.18;100.00;98243.47;4981997;28;21080;-80
2021/07/11 09:16:02;;;;;;;2.30;1.80;;;18.40;99.90;;;19.15;100.00;98236.00;4985191;28;20510;-81
2021/07/11 09:18:35;;;;;;;2.10;1.83;;;18.40;99.90;;;19.17;100.00;98249.00;4993420;28;20986;-80
2021/07/11 09:21:08;;;;;;;3.47;1.77;;;18.40;99.90;;;19.22;100.00;98247.25;4989012;28;20484;-80
2021/07/11 09:23:38;;;;;;;6.07;1.73;;;18.40;99.90;;;19.17;100.00;98251.66;4984871;28;20526;-81
2021/07/11 09:26:11;;;;;;;2.40;2.00;;;18.40;99.90;;;19.20;100.00;98253.81;4993539;28;20476;-80
2021/07/11 09:28:50;;;;;;;2.10;1.77;;;18.50;99.90;;;19.22;100.00;98241.97;4994376;28;20518;-80
2021/07/11 09:31:23;;;;;;;3.63;1.93;;;18.60;99.90;;;19.23;100.00;98253.38;4981110;28;20883;-80
2021/07/11 09:33:59;;;;;;;7.50;1.90;;;18.50;99.90;;;19.25;100.00;98261.88;4987498;28;20455;-80
2021/07/11 09:36:28;;;;;;;3.90;1.63;;;18.50;99.90;;;19.30;100.00;98251.38;4993525;28;20494;-81
2021/07/11 09:39:01;;;;;;;2.63;1.93;;;18.50;99.90;;;19.39;100.00;98240.16;4985311;28;20447;-84
2021/07/11 09:41:34;;;;;;;7.00;4.20;;;18.60;99.90;;;19.42;100.00;98245.00;4988775;28;20452;-81
2021/07/11 09:44:06;;;;;;;2.00;1.80;;;18.60;99.90;;;19.47;100.00;98246.94;4991337;28;20449;-84
2021/07/11 09:46:35;;;;;;;3.27;2.07;;;18.70;99.90;;;19.50;100.00;98244.63;4976191;28;21021;-82
2021/07/11 09:49:17;;;;;;;1.83;1.60;;;18.70;99.90;;;19.58;100.00;98257.47;4978655;28;20578;-82
2021/07/11 09:51:47;;;;;;;2.57;1.80;;;18.70;99.90;;;19.61;100.00;98248.22;4985321;28;20542;-82
2021/07/11 09:54:17;;;;;;;1.70;1.40;;;18.80;99.90;;;19.69;100.00;98244.38;4990370;28;20452;-83
2021/07/11 09:56:47;;;;;;;1.70;1.50;;;18.90;99.90;;;19.69;100.00;98247.84;4986895;28;20474;-83
2021/07/11 09:59:18;;;;;;;3.50;1.40;;;18.90;99.90;;;19.64;100.00;98254.94;4990693;28;20444;-83
2021/07/11 10:01:47;;;;;;;4.90;1.60;;;18.80;99.90;;;19.70;100.00;98253.97;4981765;28;20867;-83
2021/07/11 10:04:19;;;;;;;1.73;1.50;;;18.90;99.90;;;19.74;100.00;98253.25;4974452;28;20457;-83
2021/07/11 10:06:48;;;;;;;4.67;1.80;;;19.00;99.90;;;19.77;100.00;98257.25;4981546;28;20861;-82
2021/07/11 10:09:17;;;;;;;3.23;2.33;;;19.00;99.90;;;19.65;100.00;98248.56;4980596;28;20539;-83
2021/07/11 10:11:48;;;;;;;7.63;1.63;;;18.90;99.90;;;19.67;100.00;98251.78;4989710;28;20819;-83
2021/07/11 10:14:18;;;;;;;2.60;1.87;;;18.90;99.90;;;19.67;100.00;98251.78;4984853;28;21228;-82
2021/07/11 10:16:48;;;;;;;2.03;1.60;;;18.80;99.90;;;19.68;100.00;98253.41;4979562;28;20467;-83
2021/07/11 10:19:19;;;;;;;2.43;1.93;;;19.00;99.90;;;19.68;100.00;98248.88;4989696;28;20448;-83
2021/07/11 10:21:50;;;;;;;11.30;2.60;;;19.00;99.90;;;19.73;100.00;98256.13;4986949;28;20534;-82
2021/07/11 10:24:21;;;;;;;2.80;2.10;;;18.90;99.90;;;19.70;100.00;98249.47;4987928;28;20451;-84
2021/07/11 10:26:51;;;;;;;2.50;1.67;;;18.90;99.90;;;19.72;100.00;98251.84;4985308;28;20471;-83
2021/07/11 10:29:23;;;;;;;1.93;1.50;;;18.80;99.90;;;19.71;100.00;98252.91;4986838;28;20845;-83
2021/07/11 10:31:55;;;;;;;5.27;1.93;;;18.80;99.90;;;19.71;100.00;98252.91;4987548;28;20440;-83
2021/07/11 10:34:33;;;;;;;2.83;1.80;;;18.80;99.90;;;19.71;100.00;98251.06;4989661;28;20554;-83